createdAt,value
2023-10-09T00:02:14.430Z,25.98
2023-10-09T00:04:41.049Z,25.98
2023-10-09T00:07:07.821Z,25.98
2023-10-09T00:09:34.510Z,25.96
2023-10-09T00:12:01.155Z,25.98
2023-10-09T00:14:27.899Z,25.96
2023-10-09T00:16:54.528Z,25.96
2023-10-09T00:19:21.165Z,25.96
2023-10-09T00:21:47.747Z,25.96
2023-10-09T00:24:14.602Z,25.96
2023-10-09T00:26:41.441Z,25.92
2023-10-09T00:29:08.034Z,25.93
2023-10-09T00:31:34.862Z,25.92
2023-10-09T00:34:01.622Z,25.92
2023-10-09T00:36:28.223Z,25.90
2023-10-09T00:38:54.862Z,25.90
2023-10-09T00:41:21.490Z,25.89
2023-10-09T00:43:48.104Z,25.87
2023-10-09T00:46:14.707Z,25.89
2023-10-09T00:48:41.573Z,25.89
2023-10-09T00:51:08.374Z,25.88
2023-10-09T00:53:34.985Z,25.89
2023-10-09T00:56:01.605Z,25.88
2023-10-09T00:58:28.220Z,25.88
2023-10-09T01:00:54.832Z,25.88
2023-10-09T01:03:21.522Z,25.90
2023-10-09T01:05:48.228Z,25.89
2023-10-09T01:08:14.852Z,25.89
2023-10-09T01:10:41.448Z,25.92
2023-10-09T01:13:08.122Z,25.90
2023-10-09T01:15:34.791Z,25.90
2023-10-09T01:18:01.487Z,25.89
2023-10-09T01:20:28.119Z,25.90
2023-10-09T01:22:54.704Z,25.90
2023-10-09T01:25:21.302Z,25.86
2023-10-09T01:27:47.924Z,25.87
2023-10-09T01:30:14.569Z,25.88
2023-10-09T01:32:41.246Z,25.86
2023-10-09T01:35:07.849Z,25.87
2023-10-09T01:37:34.469Z,25.86
2023-10-09T01:40:01.142Z,25.87
2023-10-09T01:42:27.799Z,25.85
2023-10-09T01:44:54.498Z,25.81
2023-10-09T01:47:21.131Z,25.80
2023-10-09T01:49:47.723Z,25.80
2023-10-09T01:52:14.322Z,25.79
2023-10-09T01:54:40.906Z,25.81
2023-10-09T01:57:07.573Z,25.81
2023-10-09T01:59:34.172Z,25.80
2023-10-09T02:02:00.766Z,25.80
2023-10-09T02:04:27.399Z,25.79
2023-10-09T02:06:54.000Z,25.80
2023-10-09T02:09:20.650Z,25.80
2023-10-09T02:11:47.318Z,25.82
2023-10-09T02:14:14.002Z,25.82
2023-10-09T02:16:40.671Z,25.80
2023-10-09T02:19:07.265Z,25.81
2023-10-09T02:21:33.995Z,25.81
2023-10-09T02:24:00.745Z,25.80
2023-10-09T02:26:27.715Z,25.80
2023-10-09T02:28:54.424Z,25.78
2023-10-09T02:31:21.056Z,25.78
2023-10-09T02:33:47.714Z,25.80
2023-10-09T02:36:14.412Z,25.79
2023-10-09T02:38:41.121Z,25.79
2023-10-09T02:41:07.734Z,25.78
2023-10-09T02:43:34.342Z,25.79
2023-10-09T02:46:01.068Z,25.77
2023-10-09T02:48:27.728Z,25.74
2023-10-09T02:50:54.359Z,25.75
2023-10-09T02:53:20.937Z,25.77
2023-10-09T02:55:47.540Z,25.76
2023-10-09T02:58:14.141Z,25.78
2023-10-09T03:00:40.795Z,25.76
2023-10-09T03:03:07.659Z,25.75
2023-10-09T03:05:34.321Z,25.74
2023-10-09T03:08:00.924Z,25.73
2023-10-09T03:10:27.526Z,25.72
2023-10-09T03:12:54.193Z,25.71
2023-10-09T03:15:20.870Z,25.70
2023-10-09T03:17:47.515Z,25.70
2023-10-09T03:20:14.178Z,25.69
2023-10-09T03:22:40.795Z,25.69
2023-10-09T03:25:07.395Z,25.69
2023-10-09T03:27:34.007Z,25.71
2023-10-09T03:30:00.684Z,25.70
2023-10-09T03:32:27.308Z,25.72
2023-10-09T03:34:53.906Z,25.73
2023-10-09T03:37:20.501Z,25.73
2023-10-09T03:39:47.107Z,25.73
2023-10-09T03:42:13.796Z,25.73
2023-10-09T03:44:40.393Z,25.73
2023-10-09T03:47:06.984Z,25.73
2023-10-09T03:49:33.593Z,25.70
2023-10-09T03:52:00.308Z,25.69
2023-10-09T03:54:26.980Z,25.70
2023-10-09T03:56:53.665Z,25.71
2023-10-09T03:59:20.266Z,25.70
2023-10-09T04:01:46.868Z,25.68
2023-10-09T04:04:13.782Z,25.68
2023-10-09T04:06:40.717Z,25.70
2023-10-09T04:09:07.410Z,25.68
2023-10-09T04:11:34.009Z,25.67
2023-10-09T04:14:00.609Z,25.67
2023-10-09T04:16:27.219Z,25.66
2023-10-09T04:18:53.859Z,25.68
2023-10-09T04:21:21.114Z,25.66
2023-10-09T04:23:47.870Z,25.65
2023-10-09T04:26:14.477Z,25.62
2023-10-09T04:28:41.064Z,25.64
2023-10-09T04:31:07.698Z,25.64
2023-10-09T04:33:34.367Z,25.64
2023-10-09T04:36:01.049Z,25.63
2023-10-09T04:38:27.674Z,25.64
2023-10-09T04:40:54.271Z,25.63
2023-10-09T04:43:20.874Z,25.62
2023-10-09T04:45:47.481Z,25.65
2023-10-09T04:48:14.110Z,25.64
2023-10-09T04:50:40.799Z,25.63
2023-10-09T04:53:07.421Z,25.64
2023-10-09T04:55:34.017Z,25.63
2023-10-09T04:58:02.142Z,25.64
2023-10-09T05:00:29.951Z,25.64
2023-10-09T05:02:56.735Z,25.62
2023-10-09T05:05:23.355Z,25.63
2023-10-09T05:07:49.948Z,25.61
2023-10-09T05:10:16.542Z,25.60
2023-10-09T05:12:43.166Z,25.59
2023-10-09T05:15:09.918Z,25.60
2023-10-09T05:17:36.634Z,25.60
2023-10-09T05:20:03.243Z,25.60
2023-10-09T05:22:29.830Z,25.61
2023-10-09T05:24:56.422Z,25.59
2023-10-09T05:27:23.027Z,25.59
2023-10-09T05:29:49.646Z,25.59
2023-10-09T05:32:16.285Z,25.57
2023-10-09T05:34:43.198Z,25.57
2023-10-09T05:37:09.956Z,25.58
2023-10-09T05:39:36.598Z,25.59
2023-10-09T05:42:03.276Z,25.58
2023-10-09T05:44:29.888Z,25.60
2023-10-09T05:46:56.488Z,25.59
2023-10-09T05:49:23.125Z,25.57
2023-10-09T05:51:49.710Z,25.62
2023-10-09T05:54:16.382Z,25.62
2023-10-09T05:56:43.021Z,25.63
2023-10-09T05:59:09.599Z,25.60
2023-10-09T06:01:36.285Z,25.57
2023-10-09T06:04:02.977Z,25.56
2023-10-09T06:06:29.710Z,25.57
2023-10-09T06:08:56.321Z,25.58
2023-10-09T06:11:22.921Z,25.57
2023-10-09T06:13:49.505Z,25.56
2023-10-09T06:16:16.182Z,25.56
2023-10-09T06:18:44.464Z,25.57
2023-10-09T06:21:11.586Z,25.61
2023-10-09T06:23:38.263Z,25.64
2023-10-09T06:26:04.857Z,25.60
2023-10-09T06:28:31.449Z,25.59
2023-10-09T06:30:58.054Z,25.60
2023-10-09T06:33:24.678Z,25.61
2023-10-09T06:35:51.292Z,25.61
2023-10-09T06:38:17.891Z,25.55
2023-10-09T06:40:44.506Z,25.50
2023-10-09T06:43:11.154Z,25.48
2023-10-09T06:45:37.751Z,25.47
2023-10-09T06:48:04.429Z,25.47
2023-10-09T06:50:31.124Z,25.48
2023-10-09T06:52:57.719Z,25.48
2023-10-09T06:55:24.339Z,25.45
2023-10-09T06:57:50.926Z,25.46
2023-10-09T07:00:17.546Z,25.47
2023-10-09T07:02:44.232Z,25.48
2023-10-09T07:05:13.605Z,25.45
2023-10-09T07:07:41.016Z,25.43
2023-10-09T07:10:07.616Z,25.44
2023-10-09T07:12:34.314Z,25.39
2023-10-09T07:15:01.110Z,25.39
2023-10-09T07:17:27.793Z,25.36
2023-10-09T07:19:54.528Z,25.35
2023-10-09T07:22:21.136Z,25.35
2023-10-09T07:24:47.753Z,25.37
2023-10-09T07:27:14.415Z,25.36
2023-10-09T07:29:41.042Z,25.37
2023-10-09T07:32:07.624Z,25.38
2023-10-09T07:34:34.237Z,25.39
2023-10-09T07:37:00.848Z,25.40
2023-10-09T07:39:27.512Z,25.40
2023-10-09T07:41:54.150Z,25.42
2023-10-09T07:44:20.811Z,25.43
2023-10-09T07:46:47.457Z,25.45
2023-10-09T07:49:14.062Z,25.43
2023-10-09T07:51:40.709Z,25.41
2023-10-09T07:54:07.398Z,25.42
2023-10-09T07:56:34.034Z,25.40
2023-10-09T07:59:00.652Z,25.41
2023-10-09T08:01:27.310Z,25.39
2023-10-09T08:03:53.945Z,25.38
2023-10-09T08:06:20.625Z,25.38
2023-10-09T08:08:47.245Z,25.37
2023-10-09T08:11:13.858Z,25.36
2023-10-09T08:13:40.475Z,25.37
2023-10-09T08:16:07.174Z,25.35
2023-10-09T08:18:33.845Z,25.31
2023-10-09T08:21:00.505Z,25.31
2023-10-09T08:23:27.098Z,25.32
2023-10-09T08:25:53.723Z,25.34
2023-10-09T08:28:20.314Z,25.32
2023-10-09T08:30:46.950Z,25.36
2023-10-09T08:35:43.222Z,25.29
2023-10-09T08:38:09.969Z,25.30
2023-10-09T08:40:36.661Z,25.30
2023-10-09T08:43:03.273Z,25.31
2023-10-09T08:45:29.946Z,25.32
2023-10-09T08:47:56.560Z,25.33
2023-10-09T08:50:23.306Z,25.34
2023-10-09T08:52:50.393Z,25.37
2023-10-09T08:55:17.014Z,25.38
2023-10-09T08:57:43.638Z,25.41
2023-10-09T09:00:10.261Z,25.40
2023-10-09T09:02:36.929Z,25.39
2023-10-09T09:05:03.668Z,25.41
2023-10-09T09:07:30.568Z,25.42
2023-10-09T09:09:57.285Z,25.43
2023-10-09T09:12:23.897Z,25.41
2023-10-09T09:14:50.489Z,25.38
2023-10-09T09:17:17.171Z,25.36
2023-10-09T09:19:43.924Z,25.35
2023-10-09T09:22:10.576Z,25.32
2023-10-09T09:24:37.184Z,25.30
2023-10-09T09:27:03.789Z,25.29
2023-10-09T09:29:30.408Z,25.23
2023-10-09T09:31:57.066Z,25.24
2023-10-09T09:34:23.743Z,25.27
2023-10-09T09:36:50.418Z,25.35
2023-10-09T09:39:17.018Z,25.39
2023-10-09T09:41:43.635Z,25.41
2023-10-09T09:44:10.218Z,25.42
2023-10-09T09:46:36.932Z,25.44
2023-10-09T09:49:03.550Z,25.49
2023-10-09T09:51:31.530Z,25.66
2023-10-09T09:53:58.166Z,25.72
2023-10-09T09:56:24.761Z,25.75
2023-10-09T09:58:51.513Z,25.68
2023-10-09T10:01:18.313Z,25.59
2023-10-09T10:03:45.138Z,25.71
2023-10-09T10:06:11.823Z,25.90
2023-10-09T10:08:38.431Z,26.02
2023-10-09T10:11:05.061Z,26.14
2023-10-09T10:13:31.701Z,26.29
2023-10-09T10:15:58.651Z,26.41
2023-10-09T10:18:25.359Z,26.49
2023-10-09T10:20:52.009Z,26.53
2023-10-09T10:23:18.630Z,26.57
2023-10-09T10:25:45.314Z,26.60
2023-10-09T10:28:11.925Z,26.61
2023-10-09T10:30:38.557Z,26.66
2023-10-09T10:33:05.233Z,26.70
2023-10-09T10:35:32.075Z,26.67
2023-10-09T10:37:58.792Z,26.73
2023-10-09T10:40:25.401Z,26.74
2023-10-09T10:42:52.005Z,26.78
2023-10-09T10:45:18.625Z,26.78
2023-10-09T10:47:45.259Z,26.82
2023-10-09T10:50:11.959Z,26.85
2023-10-09T10:52:38.676Z,26.85
2023-10-09T10:55:05.347Z,26.84
2023-10-09T10:57:31.979Z,26.82
2023-10-09T10:59:58.600Z,26.83
2023-10-09T11:02:25.396Z,26.84
2023-10-09T11:04:52.263Z,26.81
2023-10-09T11:07:18.951Z,26.80
2023-10-09T11:09:52.957Z,26.78
2023-10-09T11:12:20.026Z,26.70
2023-10-09T11:14:46.653Z,26.56
2023-10-09T11:17:13.273Z,26.49
2023-10-09T11:19:39.886Z,26.46
2023-10-09T11:22:06.494Z,26.39
2023-10-09T11:24:33.095Z,26.32
2023-10-09T11:26:59.712Z,26.32
2023-10-09T11:29:26.317Z,26.33
2023-10-09T11:31:52.931Z,26.37
2023-10-09T11:34:19.549Z,26.35
2023-10-09T11:36:46.167Z,26.38
2023-10-09T11:39:12.778Z,26.49
2023-10-09T11:41:39.395Z,26.51
2023-10-09T11:44:06.034Z,26.48
2023-10-09T11:46:32.720Z,26.43
2023-10-09T11:48:59.400Z,26.38
2023-10-09T11:51:26.007Z,26.33
2023-10-09T11:53:52.627Z,26.33
2023-10-09T11:56:19.349Z,26.32
2023-10-09T11:58:45.992Z,26.31
2023-10-09T12:01:13.608Z,26.32
2023-10-09T12:03:40.382Z,26.30
2023-10-09T12:06:07.396Z,26.30
2023-10-09T12:08:34.072Z,26.24
2023-10-09T12:11:00.693Z,26.26
2023-10-09T12:13:27.302Z,26.28
2023-10-09T12:15:53.899Z,26.25
2023-10-09T12:18:20.549Z,26.26
2023-10-09T12:20:47.188Z,26.25
2023-10-09T12:23:13.792Z,26.21
2023-10-09T12:25:40.424Z,26.24
2023-10-09T12:28:07.022Z,26.25
2023-10-09T12:30:33.657Z,26.23
2023-10-09T12:33:00.351Z,26.23
2023-10-09T12:35:27.071Z,26.22
2023-10-09T12:37:53.692Z,26.21
2023-10-09T12:40:20.318Z,26.20
2023-10-09T12:42:46.924Z,26.19
2023-10-09T12:45:13.585Z,26.19
2023-10-09T12:47:40.284Z,26.18
2023-10-09T12:50:07.036Z,26.20
2023-10-09T12:52:33.710Z,26.20
2023-10-09T12:55:00.377Z,26.22
2023-10-09T12:57:27.003Z,26.19
2023-10-09T12:59:53.596Z,26.21
2023-10-09T13:02:20.217Z,26.23
2023-10-09T13:04:46.849Z,26.23
2023-10-09T13:07:13.541Z,26.23
2023-10-09T13:09:40.173Z,26.26
2023-10-09T13:12:06.819Z,26.23
2023-10-09T13:14:33.437Z,26.21
2023-10-09T13:17:03.018Z,26.23
2023-10-09T13:19:29.659Z,26.22
2023-10-09T13:21:56.253Z,26.23
2023-10-09T13:24:22.856Z,26.25
2023-10-09T13:26:49.481Z,26.25
2023-10-09T13:29:18.426Z,26.23
2023-10-09T13:31:45.568Z,26.22
2023-10-09T13:34:12.223Z,26.33
2023-10-09T13:36:38.890Z,26.35
2023-10-09T13:39:05.517Z,26.42
2023-10-09T13:41:32.125Z,26.38
2023-10-09T13:43:58.765Z,26.34
2023-10-09T13:46:25.515Z,26.33
2023-10-09T13:48:52.263Z,26.33
2023-10-09T13:51:18.877Z,26.31
2023-10-09T13:53:45.499Z,26.32
2023-10-09T13:56:12.158Z,26.31
2023-10-09T13:58:38.809Z,26.32
2023-10-09T14:01:05.478Z,26.35
2023-10-09T14:03:32.194Z,26.34
2023-10-09T14:05:58.945Z,26.33
2023-10-09T14:08:25.581Z,26.33
2023-10-09T14:10:52.245Z,26.34
2023-10-09T14:13:18.875Z,26.38
2023-10-09T14:15:45.515Z,26.38
2023-10-09T14:18:12.165Z,26.40
2023-10-09T14:20:38.790Z,26.39
2023-10-09T14:23:05.400Z,26.40
2023-10-09T14:25:32.042Z,26.40
2023-10-09T14:27:58.645Z,26.41
2023-10-09T14:30:25.228Z,26.38
2023-10-09T14:32:51.876Z,26.38
2023-10-09T14:35:18.531Z,26.41
2023-10-09T14:37:45.162Z,26.45
2023-10-09T14:40:11.846Z,26.36
2023-10-09T14:42:38.438Z,26.31
2023-10-09T14:45:05.061Z,26.31
2023-10-09T14:47:31.777Z,26.38
2023-10-09T14:49:58.456Z,26.36
2023-10-09T14:52:25.074Z,26.40
2023-10-09T14:54:51.889Z,26.36
2023-10-09T14:57:18.561Z,26.39
2023-10-09T14:59:45.208Z,26.42
2023-10-09T15:02:11.818Z,26.39
2023-10-09T15:04:38.490Z,26.31
2023-10-09T15:07:05.089Z,26.35
2023-10-09T15:09:31.691Z,26.32
2023-10-09T15:11:58.287Z,26.29
2023-10-09T15:14:24.898Z,26.36
2023-10-09T15:16:51.521Z,26.34
2023-10-09T15:19:18.137Z,26.39
2023-10-09T15:21:44.744Z,26.37
2023-10-09T15:24:11.395Z,26.47
2023-10-09T15:26:38.127Z,26.50
2023-10-09T15:29:04.982Z,26.48
2023-10-09T15:31:31.664Z,26.47
2023-10-09T15:33:58.301Z,26.46
2023-10-09T15:36:24.942Z,26.44
2023-10-09T15:38:51.553Z,26.48
2023-10-09T15:41:18.188Z,26.48
2023-10-09T15:43:44.829Z,26.50
2023-10-09T15:46:11.461Z,26.50
2023-10-09T15:48:38.141Z,26.47
2023-10-09T15:51:04.747Z,26.45
2023-10-09T15:53:31.434Z,26.44
2023-10-09T15:55:58.157Z,26.45
2023-10-09T15:58:24.761Z,26.41
2023-10-09T16:00:51.365Z,26.40
2023-10-09T16:03:18.025Z,26.35
2023-10-09T16:05:44.682Z,26.46
2023-10-09T16:08:11.354Z,26.55
2023-10-09T16:10:38.097Z,26.52
2023-10-09T16:13:04.818Z,26.50
2023-10-09T16:15:31.411Z,26.51
2023-10-09T16:17:58.078Z,26.54
2023-10-09T16:20:24.730Z,26.57
2023-10-09T16:22:51.382Z,26.58
2023-10-09T16:25:18.020Z,26.59
2023-10-09T16:27:44.614Z,26.61
2023-10-09T16:30:11.204Z,26.60
2023-10-09T16:32:37.911Z,26.64
2023-10-09T16:35:04.600Z,26.63
2023-10-09T16:37:31.239Z,26.65
2023-10-09T16:39:57.846Z,26.72
2023-10-09T16:42:24.472Z,26.73
2023-10-09T16:44:51.084Z,26.72
2023-10-09T16:47:17.720Z,26.78
2023-10-09T16:49:44.387Z,26.86
2023-10-09T16:52:10.987Z,26.87
2023-10-09T16:54:37.567Z,26.92
2023-10-09T16:57:04.169Z,26.92
2023-10-09T16:59:30.751Z,26.95
2023-10-09T17:01:57.397Z,26.99
2023-10-09T17:04:24.241Z,26.98
2023-10-09T17:06:51.156Z,26.98
2023-10-09T17:09:17.764Z,26.99
2023-10-09T17:11:44.360Z,26.97
2023-10-09T17:14:10.980Z,26.98
2023-10-09T17:16:37.590Z,26.95
2023-10-09T17:19:04.174Z,26.97
2023-10-09T17:21:30.804Z,27.02
2023-10-09T17:23:57.400Z,27.01
2023-10-09T17:26:24.080Z,26.93
2023-10-09T17:28:50.752Z,26.82
2023-10-09T17:31:17.407Z,26.79
2023-10-09T17:33:44.041Z,26.75
2023-10-09T17:36:10.639Z,26.70
2023-10-09T17:38:37.253Z,26.68
2023-10-09T17:41:03.935Z,26.68
2023-10-09T17:43:30.577Z,26.69
2023-10-09T17:45:57.181Z,26.70
2023-10-09T17:48:23.908Z,26.65
2023-10-09T17:50:50.575Z,26.62
2023-10-09T17:53:17.318Z,26.69
2023-10-09T17:55:44.078Z,26.76
2023-10-09T17:58:10.695Z,26.94
2023-10-09T18:00:37.340Z,27.17
2023-10-09T18:03:04.070Z,27.34
2023-10-09T18:05:30.780Z,27.35
2023-10-09T18:07:57.443Z,27.42
2023-10-09T18:10:24.076Z,27.42
2023-10-09T18:12:50.682Z,27.42
2023-10-09T18:15:17.299Z,27.42
2023-10-09T18:17:44.062Z,27.43
2023-10-09T18:20:10.818Z,27.42
2023-10-09T18:22:37.431Z,27.40
2023-10-09T18:25:04.010Z,27.39
2023-10-09T18:27:30.643Z,27.39
2023-10-09T18:29:57.256Z,27.40
2023-10-09T18:32:23.919Z,27.41
2023-10-09T18:34:50.626Z,27.38
2023-10-09T18:37:17.247Z,27.25
2023-10-09T18:39:43.863Z,27.21
2023-10-09T18:42:10.509Z,27.22
2023-10-09T18:44:37.245Z,27.21
2023-10-09T18:47:03.960Z,27.24
2023-10-09T18:49:30.647Z,27.25
2023-10-09T18:51:57.319Z,27.24
2023-10-09T18:54:23.946Z,27.22
2023-10-09T18:56:50.559Z,27.20
2023-10-09T18:59:17.369Z,27.13
2023-10-09T19:01:44.198Z,27.17
2023-10-09T19:04:10.839Z,27.16
2023-10-09T19:06:37.594Z,27.15
2023-10-09T19:09:04.204Z,27.20
2023-10-09T19:11:30.809Z,27.26
2023-10-09T19:13:57.450Z,27.26
2023-10-09T19:16:24.091Z,27.21
2023-10-09T19:18:50.742Z,27.23
2023-10-09T19:21:17.362Z,27.18
2023-10-09T19:23:43.960Z,27.21
2023-10-09T19:26:10.610Z,27.19
2023-10-09T19:28:37.231Z,27.19
2023-10-09T19:31:03.843Z,27.20
2023-10-09T19:33:30.483Z,27.19
2023-10-09T19:35:57.082Z,27.18
2023-10-09T19:38:23.784Z,27.18
2023-10-09T19:40:50.448Z,27.21
2023-10-09T19:43:17.049Z,27.19
2023-10-09T19:45:43.658Z,27.15
2023-10-09T19:48:10.320Z,27.14
2023-10-09T19:50:40.082Z,27.12
2023-10-09T19:53:06.743Z,27.12
2023-10-09T19:55:33.367Z,27.11
2023-10-09T19:57:59.958Z,27.09
2023-10-09T20:00:26.584Z,27.09
2023-10-09T20:02:53.253Z,27.09
2023-10-09T20:05:19.969Z,27.07
2023-10-09T20:07:46.635Z,27.05
2023-10-09T20:10:13.256Z,27.05
2023-10-09T20:12:39.866Z,27.05
2023-10-09T20:15:06.466Z,27.02
2023-10-09T20:17:33.144Z,26.99
2023-10-09T20:19:59.843Z,26.97
2023-10-09T20:22:26.481Z,26.96
2023-10-09T20:24:53.068Z,26.91
2023-10-09T20:27:19.673Z,26.90
2023-10-09T20:29:46.291Z,26.85
2023-10-09T20:32:13.017Z,26.83
2023-10-09T20:34:39.692Z,26.79
2023-10-09T20:37:06.296Z,26.78
2023-10-09T20:39:32.884Z,26.76
2023-10-09T20:41:59.692Z,26.75
2023-10-09T20:44:26.359Z,26.75
2023-10-09T20:46:52.977Z,26.73
2023-10-09T20:49:19.575Z,26.72
2023-10-09T20:51:54.950Z,26.72
2023-10-09T20:54:23.607Z,26.69
2023-10-09T20:56:50.206Z,26.71
2023-10-09T20:59:16.917Z,26.80
2023-10-09T21:01:43.676Z,26.80
2023-10-09T21:04:10.434Z,26.81
2023-10-09T21:06:37.063Z,26.82
2023-10-09T21:09:03.669Z,26.79
2023-10-09T21:11:30.272Z,26.74
2023-10-09T21:13:56.888Z,26.72
2023-10-09T21:16:23.560Z,26.72
2023-10-09T21:18:50.201Z,26.70
2023-10-09T21:21:16.975Z,26.68
2023-10-09T21:23:43.676Z,26.71
2023-10-09T21:26:10.354Z,26.69
2023-10-09T21:28:36.977Z,26.66
2023-10-09T21:31:03.577Z,26.61
2023-10-09T21:33:30.224Z,26.58
2023-10-09T21:35:56.903Z,26.60
2023-10-09T21:38:23.519Z,26.59
2023-10-09T21:40:55.054Z,26.62
2023-10-09T21:43:21.642Z,26.61
2023-10-09T21:45:48.250Z,26.59
2023-10-09T21:48:14.868Z,26.59
2023-10-09T21:50:41.492Z,26.58
2023-10-09T21:53:08.153Z,26.59
2023-10-09T21:55:34.788Z,26.58
2023-10-09T21:58:01.429Z,26.59
2023-10-09T22:00:28.043Z,26.60
2023-10-09T22:02:54.734Z,26.59
2023-10-09T22:05:21.399Z,26.58
2023-10-09T22:07:48.056Z,26.56
2023-10-09T22:10:14.672Z,26.55
2023-10-09T22:12:41.260Z,26.55
2023-10-09T22:15:07.873Z,26.53
2023-10-09T22:17:34.621Z,26.53
2023-10-09T22:20:01.309Z,26.52
2023-10-09T22:22:27.932Z,26.53
2023-10-09T22:24:54.539Z,26.49
2023-10-09T22:27:21.133Z,26.50
2023-10-09T22:29:47.725Z,26.49
2023-10-09T22:32:14.358Z,26.53
2023-10-09T22:34:41.046Z,26.52
2023-10-09T22:37:07.644Z,26.51
2023-10-09T22:39:34.474Z,26.50
2023-10-09T22:42:01.189Z,26.45
2023-10-09T22:44:27.857Z,26.49
2023-10-09T22:46:54.544Z,26.47
2023-10-09T22:49:21.148Z,26.49
2023-10-09T22:51:47.737Z,26.49
2023-10-09T22:54:14.340Z,26.48
2023-10-09T22:56:40.930Z,26.47
2023-10-09T22:59:07.543Z,26.46
2023-10-09T23:01:34.192Z,26.45
2023-10-09T23:04:00.866Z,26.44
2023-10-09T23:06:27.584Z,26.45
2023-10-09T23:08:54.183Z,26.43
2023-10-09T23:11:20.806Z,26.42
2023-10-09T23:13:47.434Z,26.42
2023-10-09T23:16:14.038Z,26.45
2023-10-09T23:18:40.714Z,26.45
2023-10-09T23:21:07.321Z,26.43
2023-10-09T23:23:33.905Z,26.45
2023-10-09T23:26:00.522Z,26.42
2023-10-09T23:28:27.136Z,26.38
2023-10-09T23:30:53.889Z,26.37
2023-10-09T23:33:20.584Z,26.38
2023-10-09T23:35:47.168Z,26.37
2023-10-09T23:38:13.809Z,26.36
2023-10-09T23:40:40.412Z,26.34
2023-10-09T23:43:07.062Z,26.35
2023-10-09T23:45:33.704Z,26.40
2023-10-09T23:48:00.354Z,26.39
2023-10-09T23:50:27.112Z,26.39
2023-10-09T23:52:53.769Z,26.42
2023-10-09T23:55:20.371Z,26.45
2023-10-09T23:57:46.984Z,26.45
